sensor_id;sensor_type;location;lat;lon;timestamp;temperature;humidity
39779;DHT22;25454;49.878;8.618;2023-03-14T00:00:31;11.00;99.90
39779;DHT22;25454;49.878;8.618;2023-03-14T00:05:34;11.10;99.90
39779;DHT22;25454;49.878;8.618;2023-03-14T00:10:36;11.10;99.90
39779;DHT22;25454;49.878;8.618;2023-03-14T00:15:36;11.20;99.90
39779;DHT22;25454;49.878;8.618;2023-03-14T00:20:37;11.10;99.90
39779;DHT22;25454;49.878;8.618;2023-03-14T00:25:37;11.10;99.90
39779;DHT22;25454;49.878;8.618;2023-03-14T00:30:38;11.10;99.90
39779;DHT22;25454;49.878;8.618;2023-03-14T00:35:38;11.10;99.90
39779;DHT22;25454;49.878;8.618;2023-03-14T00:40:39;11.10;99.90
39779;DHT22;25454;49.878;8.618;2023-03-14T00:45:40;11.10;99.90
39779;DHT22;25454;49.878;8.618;2023-03-14T00:50:40;11.00;99.90
39779;DHT22;25454;49.878;8.618;2023-03-14T00:55:43;11.00;99.90
39779;DHT22;25454;49.878;8.618;2023-03-14T01:00:44;10.90;99.90
39779;DHT22;25454;49.878;8.618;2023-03-14T01:05:44;10.90;99.90
39779;DHT22;25454;49.878;8.618;2023-03-14T01:10:45;10.90;99.90
39779;DHT22;25454;49.878;8.618;2023-03-14T01:15:46;10.80;99.90
39779;DHT22;25454;49.878;8.618;2023-03-14T01:20:46;10.80;99.90
39779;DHT22;25454;49.878;8.618;2023-03-14T01:25:47;10.80;99.90
39779;DHT22;25454;49.878;8.618;2023-03-14T01:30:47;10.80;99.90
39779;DHT22;25454;49.878;8.618;2023-03-14T01:35:50;10.80;99.90
39779;DHT22;25454;49.878;8.618;2023-03-14T01:40:50;10.80;99.90
39779;DHT22;25454;49.878;8.618;2023-03-14T01:51:09;10.90;99.90
39779;DHT22;25454;49.878;8.618;2023-03-14T01:56:13;10.90;99.90
39779;DHT22;25454;49.878;8.618;2023-03-14T02:01:16;11.00;99.90
39779;DHT22;25454;49.878;8.618;2023-03-14T02:06:23;11.00;99.90
39779;DHT22;25454;49.878;8.618;2023-03-14T02:11:28;11.00;99.90
39779;DHT22;25454;49.878;8.618;2023-03-14T02:16:30;11.10;99.90
39779;DHT22;25454;49.878;8.618;2023-03-14T02:22:16;11.10;99.90
39779;DHT22;25454;49.878;8.618;2023-03-14T02:27:08;11.10;99.90
39779;DHT22;25454;49.878;8.618;2023-03-14T02:32:09;11.10;99.90
39779;DHT22;25454;49.878;8.618;2023-03-14T02:37:10;11.10;99.90
39779;DHT22;25454;49.878;8.618;2023-03-14T02:42:13;11.10;99.90
39779;DHT22;25454;49.878;8.618;2023-03-14T02:47:13;11.20;99.90
39779;DHT22;25454;49.878;8.618;2023-03-14T02:52:14;11.20;99.90
39779;DHT22;25454;49.878;8.618;2023-03-14T02:57:14;11.20;99.90
39779;DHT22;25454;49.878;8.618;2023-03-14T03:02:15;11.10;99.90
39779;DHT22;25454;49.878;8.618;2023-03-14T03:07:16;11.10;99.90
39779;DHT22;25454;49.878;8.618;2023-03-14T03:12:16;11.10;99.90
39779;DHT22;25454;49.878;8.618;2023-03-14T03:17:17;11.10;99.90
39779;DHT22;25454;49.878;8.618;2023-03-14T03:22:18;11.00;99.90
39779;DHT22;25454;49.878;8.618;2023-03-14T03:27:18;11.00;99.90
39779;DHT22;25454;49.878;8.618;2023-03-14T03:32:19;11.00;99.90
39779;DHT22;25454;49.878;8.618;2023-03-14T03:37:19;10.90;99.90
39779;DHT22;25454;49.878;8.618;2023-03-14T03:42:20;10.90;99.90
39779;DHT22;25454;49.878;8.618;2023-03-14T03:47:20;10.90;99.90
39779;DHT22;25454;49.878;8.618;2023-03-14T03:52:21;10.90;99.90
39779;DHT22;25454;49.878;8.618;2023-03-14T03:57:25;10.90;99.90
39779;DHT22;25454;49.878;8.618;2023-03-14T04:02:25;11.00;99.90
39779;DHT22;25454;49.878;8.618;2023-03-14T04:07:26;11.00;99.90
39779;DHT22;25454;49.878;8.618;2023-03-14T04:12:29;11.00;99.90
39779;DHT22;25454;49.878;8.618;2023-03-14T04:17:30;11.10;99.90
39779;DHT22;25454;49.878;8.618;2023-03-14T04:22:30;11.10;99.90
39779;DHT22;25454;49.878;8.618;2023-03-14T04:27:34;11.10;99.90
39779;DHT22;25454;49.878;8.618;2023-03-14T04:32:34;11.10;99.90
39779;DHT22;25454;49.878;8.618;2023-03-14T04:37:35;11.10;99.90
39779;DHT22;25454;49.878;8.618;2023-03-14T04:42:35;11.10;99.90
39779;DHT22;25454;49.878;8.618;2023-03-14T04:47:37;11.20;99.90
39779;DHT22;25454;49.878;8.618;2023-03-14T04:52:37;11.20;99.90
39779;DHT22;25454;49.878;8.618;2023-03-14T04:57:38;11.20;99.90
39779;DHT22;25454;49.878;8.618;2023-03-14T05:02:38;11.20;99.90
39779;DHT22;25454;49.878;8.618;2023-03-14T05:07:39;11.20;99.90
39779;DHT22;25454;49.878;8.618;2023-03-14T05:12:39;11.20;99.90
39779;DHT22;25454;49.878;8.618;2023-03-14T05:17:40;11.10;99.90
39779;DHT22;25454;49.878;8.618;2023-03-14T05:22:41;11.00;99.90
39779;DHT22;25454;49.878;8.618;2023-03-14T05:27:41;11.00;99.90
39779;DHT22;25454;49.878;8.618;2023-03-14T05:32:42;11.00;99.90
39779;DHT22;25454;49.878;8.618;2023-03-14T05:37:42;11.00;99.90
39779;DHT22;25454;49.878;8.618;2023-03-14T05:42:43;11.00;99.90
39779;DHT22;25454;49.878;8.618;2023-03-14T05:47:43;11.10;99.90
39779;DHT22;25454;49.878;8.618;2023-03-14T05:52:44;11.10;99.90
39779;DHT22;25454;49.878;8.618;2023-03-14T05:57:44;11.10;99.90
39779;DHT22;25454;49.878;8.618;2023-03-14T06:02:45;11.10;99.90
39779;DHT22;25454;49.878;8.618;2023-03-14T06:07:45;11.10;99.90
39779;DHT22;25454;49.878;8.618;2023-03-14T06:12:46;11.10;99.90
39779;DHT22;25454;49.878;8.618;2023-03-14T06:17:46;11.10;99.90
39779;DHT22;25454;49.878;8.618;2023-03-14T06:22:47;11.10;99.90
39779;DHT22;25454;49.878;8.618;2023-03-14T06:27:48;11.10;99.90
39779;DHT22;25454;49.878;8.618;2023-03-14T06:32:48;11.20;99.90
39779;DHT22;25454;49.878;8.618;2023-03-14T06:37:49;11.20;99.90
39779;DHT22;25454;49.878;8.618;2023-03-14T06:42:50;11.20;99.90
39779;DHT22;25454;49.878;8.618;2023-03-14T06:47:50;11.20;99.90
39779;DHT22;25454;49.878;8.618;2023-03-14T06:52:51;11.20;99.90
39779;DHT22;25454;49.878;8.618;2023-03-14T06:57:51;11.20;99.90
39779;DHT22;25454;49.878;8.618;2023-03-14T07:02:52;11.20;99.90
39779;DHT22;25454;49.878;8.618;2023-03-14T07:07:52;11.30;99.90
39779;DHT22;25454;49.878;8.618;2023-03-14T07:12:53;11.30;99.90
39779;DHT22;25454;49.878;8.618;2023-03-14T07:17:54;11.40;99.90
39779;DHT22;25454;49.878;8.618;2023-03-14T07:22:54;11.50;99.90
39779;DHT22;25454;49.878;8.618;2023-03-14T07:27:58;11.50;99.90
39779;DHT22;25454;49.878;8.618;2023-03-14T07:32:58;11.60;99.90
39779;DHT22;25454;49.878;8.618;2023-03-14T07:37:59;11.60;99.90
39779;DHT22;25454;49.878;8.618;2023-03-14T07:43:00;11.80;99.90
39779;DHT22;25454;49.878;8.618;2023-03-14T07:48:00;11.80;99.90
39779;DHT22;25454;49.878;8.618;2023-03-14T07:53:02;11.80;99.90
39779;DHT22;25454;49.878;8.618;2023-03-14T07:58:03;11.90;99.90
39779;DHT22;25454;49.878;8.618;2023-03-14T08:03:03;12.00;99.90
39779;DHT22;25454;49.878;8.618;2023-03-14T08:08:06;12.00;99.90
39779;DHT22;25454;49.878;8.618;2023-03-14T08:13:08;12.10;99.90
39779;DHT22;25454;49.878;8.618;2023-03-14T08:18:09;12.20;99.90
39779;DHT22;25454;49.878;8.618;2023-03-14T08:23:09;12.20;99.90
39779;DHT22;25454;49.878;8.618;2023-03-14T08:28:10;12.50;99.90
39779;DHT22;25454;49.878;8.618;2023-03-14T08:33:11;12.60;99.90
39779;DHT22;25454;49.878;8.618;2023-03-14T08:38:12;12.50;99.90
39779;DHT22;25454;49.878;8.618;2023-03-14T08:43:12;12.40;99.90
39779;DHT22;25454;49.878;8.618;2023-03-14T08:48:13;12.60;99.90
39779;DHT22;25454;49.878;8.618;2023-03-14T08:53:13;13.20;99.90
39779;DHT22;25454;49.878;8.618;2023-03-14T08:58:17;16.00;99.90
39779;DHT22;25454;49.878;8.618;2023-03-14T09:03:17;16.90;99.90
39779;DHT22;25454;49.878;8.618;2023-03-14T09:08:18;15.80;99.90
39779;DHT22;25454;49.878;8.618;2023-03-14T09:13:18;14.70;99.90
39779;DHT22;25454;49.878;8.618;2023-03-14T09:18:19;14.10;99.90
39779;DHT22;25454;49.878;8.618;2023-03-14T09:23:19;14.40;99.90
39779;DHT22;25454;49.878;8.618;2023-03-14T09:28:20;15.00;99.90
39779;DHT22;25454;49.878;8.618;2023-03-14T09:33:21;15.30;99.90
39779;DHT22;25454;49.878;8.618;2023-03-14T09:38:21;15.20;99.90
39779;DHT22;25454;49.878;8.618;2023-03-14T09:43:24;14.80;99.90
39779;DHT22;25454;49.878;8.618;2023-03-14T09:48:29;14.80;99.90
39779;DHT22;25454;49.878;8.618;2023-03-14T09:53:39;14.40;99.90
39779;DHT22;25454;49.878;8.618;2023-03-14T09:58:42;14.00;99.90
39779;DHT22;25454;49.878;8.618;2023-03-14T10:03:45;13.90;99.90
39779;DHT22;25454;49.878;8.618;2023-03-14T10:08:46;13.90;99.90
39779;DHT22;25454;49.878;8.618;2023-03-14T10:14:08;13.70;99.90
39779;DHT22;25454;49.878;8.618;2023-03-14T10:19:14;13.70;99.90
39779;DHT22;25454;49.878;8.618;2023-03-14T10:29:22;13.80;99.90
39779;DHT22;25454;49.878;8.618;2023-03-14T10:34:25;13.70;99.90
39779;DHT22;25454;49.878;8.618;2023-03-14T10:39:30;13.60;99.90
39779;DHT22;25454;49.878;8.618;2023-03-14T10:44:34;13.50;99.90
39779;DHT22;25454;49.878;8.618;2023-03-14T10:49:36;13.30;99.90
39779;DHT22;25454;49.878;8.618;2023-03-14T10:54:37;13.20;99.90
39779;DHT22;25454;49.878;8.618;2023-03-14T10:59:41;13.00;99.90
39779;DHT22;25454;49.878;8.618;2023-03-14T11:10:31;12.90;99.90
39779;DHT22;25454;49.878;8.618;2023-03-14T11:15:43;12.90;99.90
39779;DHT22;25454;49.878;8.618;2023-03-14T11:26:35;12.90;99.90
39779;DHT22;25454;49.878;8.618;2023-03-14T11:31:40;12.80;99.90
39779;DHT22;25454;49.878;8.618;2023-03-14T11:37:07;12.60;99.90
39779;DHT22;25454;49.878;8.618;2023-03-14T11:42:15;12.60;99.90
39779;DHT22;25454;49.878;8.618;2023-03-14T11:47:23;12.70;99.90
39779;DHT22;25454;49.878;8.618;2023-03-14T11:58:16;13.20;99.90
39779;DHT22;25454;49.878;8.618;2023-03-14T12:08:53;13.20;99.90
39779;DHT22;25454;49.878;8.618;2023-03-14T12:13:54;12.90;99.90
39779;DHT22;25454;49.878;8.618;2023-03-14T12:18:55;12.40;99.90
39779;DHT22;25454;49.878;8.618;2023-03-14T12:23:57;12.30;99.90
39779;DHT22;25454;49.878;8.618;2023-03-14T12:39:50;12.10;99.90
39779;DHT22;25454;49.878;8.618;2023-03-14T12:45:31;12.00;99.90
39779;DHT22;25454;49.878;8.618;2023-03-14T12:50:35;12.30;99.90
39779;DHT22;25454;49.878;8.618;2023-03-14T12:55:44;12.70;99.90
39779;DHT22;25454;49.878;8.618;2023-03-14T13:00:54;12.80;99.90
39779;DHT22;25454;49.878;8.618;2023-03-14T13:05:58;12.80;99.90
39779;DHT22;25454;49.878;8.618;2023-03-14T13:10:59;12.60;99.90
39779;DHT22;25454;49.878;8.618;2023-03-14T13:16:02;12.30;99.90
39779;DHT22;25454;49.878;8.618;2023-03-14T13:26:32;11.30;99.90
39779;DHT22;25454;49.878;8.618;2023-03-14T13:31:34;10.80;99.90
39779;DHT22;25454;49.878;8.618;2023-03-14T13:36:35;10.30;99.90
39779;DHT22;25454;49.878;8.618;2023-03-14T13:41:36;10.20;99.90
39779;DHT22;25454;49.878;8.618;2023-03-14T13:46:38;10.20;99.90
39779;DHT22;25454;49.878;8.618;2023-03-14T13:51:39;10.40;99.90
39779;DHT22;25454;49.878;8.618;2023-03-14T13:56:40;10.50;99.90
39779;DHT22;25454;49.878;8.618;2023-03-14T14:01:41;10.70;99.90
39779;DHT22;25454;49.878;8.618;2023-03-14T14:06:53;10.80;99.90
39779;DHT22;25454;49.878;8.618;2023-03-14T14:12:07;10.80;99.90
39779;DHT22;25454;49.878;8.618;2023-03-14T14:17:17;10.80;99.90
39779;DHT22;25454;49.878;8.618;2023-03-14T14:22:20;11.30;99.90
39779;DHT22;25454;49.878;8.618;2023-03-14T14:27:38;11.70;99.90
39779;DHT22;25454;49.878;8.618;2023-03-14T14:32:45;12.00;99.90
39779;DHT22;25454;49.878;8.618;2023-03-14T14:37:45;11.90;99.90
39779;DHT22;25454;49.878;8.618;2023-03-14T14:42:46;11.90;99.90
39779;DHT22;25454;49.878;8.618;2023-03-14T14:48:09;11.80;99.90
39779;DHT22;25454;49.878;8.618;2023-03-14T14:58:39;11.30;99.90
39779;DHT22;25454;49.878;8.618;2023-03-14T15:03:42;11.10;99.90
39779;DHT22;25454;49.878;8.618;2023-03-14T15:08:44;10.70;99.90
39779;DHT22;25454;49.878;8.618;2023-03-14T15:13:45;10.50;99.90
39779;DHT22;25454;49.878;8.618;2023-03-14T15:18:54;10.50;99.90
39779;DHT22;25454;49.878;8.618;2023-03-14T15:23:58;10.40;99.90
39779;DHT22;25454;49.878;8.618;2023-03-14T15:28:58;10.40;99.90
39779;DHT22;25454;49.878;8.618;2023-03-14T15:33:59;10.30;99.90
39779;DHT22;25454;49.878;8.618;2023-03-14T15:39:00;10.30;99.90
39779;DHT22;25454;49.878;8.618;2023-03-14T15:44:00;10.20;99.90
39779;DHT22;25454;49.878;8.618;2023-03-14T15:49:01;10.10;99.90
39779;DHT22;25454;49.878;8.618;2023-03-14T15:54:02;10.00;99.90
39779;DHT22;25454;49.878;8.618;2023-03-14T15:59:02;9.90;99.90
39779;DHT22;25454;49.878;8.618;2023-03-14T16:04:03;10.00;99.90
39779;DHT22;25454;49.878;8.618;2023-03-14T16:09:03;10.30;99.90
39779;DHT22;25454;49.878;8.618;2023-03-14T16:14:04;10.30;99.90
39779;DHT22;25454;49.878;8.618;2023-03-14T16:19:06;10.30;99.90
39779;DHT22;25454;49.878;8.618;2023-03-14T16:24:07;10.20;99.90
39779;DHT22;25454;49.878;8.618;2023-03-14T16:29:07;10.00;99.90
39779;DHT22;25454;49.878;8.618;2023-03-14T16:34:08;9.80;99.90
39779;DHT22;25454;49.878;8.618;2023-03-14T16:39:09;9.50;99.90
39779;DHT22;25454;49.878;8.618;2023-03-14T16:44:10;9.20;99.90
39779;DHT22;25454;49.878;8.618;2023-03-14T16:49:10;9.00;99.90
39779;DHT22;25454;49.878;8.618;2023-03-14T16:54:11;8.90;99.90
39779;DHT22;25454;49.878;8.618;2023-03-14T16:59:12;8.70;99.90
39779;DHT22;25454;49.878;8.618;2023-03-14T17:04:15;8.50;99.90
39779;DHT22;25454;49.878;8.618;2023-03-14T17:09:16;8.40;99.90
39779;DHT22;25454;49.878;8.618;2023-03-14T17:14:16;8.20;99.90
39779;DHT22;25454;49.878;8.618;2023-03-14T17:19:17;8.20;99.90
39779;DHT22;25454;49.878;8.618;2023-03-14T17:24:18;8.00;99.90
39779;DHT22;25454;49.878;8.618;2023-03-14T17:29:19;7.90;99.90
39779;DHT22;25454;49.878;8.618;2023-03-14T17:34:19;7.80;99.90
39779;DHT22;25454;49.878;8.618;2023-03-14T17:39:20;7.80;99.90
39779;DHT22;25454;49.878;8.618;2023-03-14T17:44:20;7.80;99.90
39779;DHT22;25454;49.878;8.618;2023-03-14T17:49:21;7.70;99.90
39779;DHT22;25454;49.878;8.618;2023-03-14T17:54:22;7.60;99.90
39779;DHT22;25454;49.878;8.618;2023-03-14T17:59:22;7.50;99.90
39779;DHT22;25454;49.878;8.618;2023-03-14T18:04:23;7.50;99.90
39779;DHT22;25454;49.878;8.618;2023-03-14T18:09:24;7.50;99.90
39779;DHT22;25454;49.878;8.618;2023-03-14T18:14:24;7.50;99.90
39779;DHT22;25454;49.878;8.618;2023-03-14T18:19:25;7.50;99.90
39779;DHT22;25454;49.878;8.618;2023-03-14T18:24:25;7.50;99.90
39779;DHT22;25454;49.878;8.618;2023-03-14T18:29:26;7.50;99.90
39779;DHT22;25454;49.878;8.618;2023-03-14T18:34:26;7.40;99.90
39779;DHT22;25454;49.878;8.618;2023-03-14T18:39:27;7.30;99.90
39779;DHT22;25454;49.878;8.618;2023-03-14T18:44:28;7.20;99.90
39779;DHT22;25454;49.878;8.618;2023-03-14T18:49:29;7.10;99.90
39779;DHT22;25454;49.878;8.618;2023-03-14T18:54:29;6.90;99.90
39779;DHT22;25454;49.878;8.618;2023-03-14T18:59:30;6.80;99.90
39779;DHT22;25454;49.878;8.618;2023-03-14T19:04:30;6.80;99.90
39779;DHT22;25454;49.878;8.618;2023-03-14T19:09:31;6.80;99.90
39779;DHT22;25454;49.878;8.618;2023-03-14T19:14:31;6.80;99.90
39779;DHT22;25454;49.878;8.618;2023-03-14T19:19:32;6.80;99.90
39779;DHT22;25454;49.878;8.618;2023-03-14T19:24:32;6.80;99.90
39779;DHT22;25454;49.878;8.618;2023-03-14T19:29:34;6.80;99.90
39779;DHT22;25454;49.878;8.618;2023-03-14T19:34:41;6.90;99.90
39779;DHT22;25454;49.878;8.618;2023-03-14T19:39:43;6.90;99.90
39779;DHT22;25454;49.878;8.618;2023-03-14T19:44:46;7.00;99.90
39779;DHT22;25454;49.878;8.618;2023-03-14T19:49:52;7.00;99.90
39779;DHT22;25454;49.878;8.618;2023-03-14T19:54:53;7.00;99.90
39779;DHT22;25454;49.878;8.618;2023-03-14T19:59:54;6.90;99.90
39779;DHT22;25454;49.878;8.618;2023-03-14T20:04:54;6.80;99.90
39779;DHT22;25454;49.878;8.618;2023-03-14T20:09:57;6.90;99.90
39779;DHT22;25454;49.878;8.618;2023-03-14T20:15:00;6.80;99.90
39779;DHT22;25454;49.878;8.618;2023-03-14T20:20:01;6.60;99.90
39779;DHT22;25454;49.878;8.618;2023-03-14T20:25:07;6.50;99.90
39779;DHT22;25454;49.878;8.618;2023-03-14T20:30:11;6.50;99.90
39779;DHT22;25454;49.878;8.618;2023-03-14T20:35:12;6.50;99.90
39779;DHT22;25454;49.878;8.618;2023-03-14T20:40:14;6.50;99.90
39779;DHT22;25454;49.878;8.618;2023-03-14T20:45:15;6.60;99.90
39779;DHT22;25454;49.878;8.618;2023-03-14T20:50:16;6.60;99.90
39779;DHT22;25454;49.878;8.618;2023-03-14T20:55:17;6.60;99.90
39779;DHT22;25454;49.878;8.618;2023-03-14T21:00:18;6.50;99.90
39779;DHT22;25454;49.878;8.618;2023-03-14T21:05:19;6.40;99.90
39779;DHT22;25454;49.878;8.618;2023-03-14T21:10:20;6.40;99.90
39779;DHT22;25454;49.878;8.618;2023-03-14T21:15:20;6.40;99.90
39779;DHT22;25454;49.878;8.618;2023-03-14T21:20:21;6.40;99.90
39779;DHT22;25454;49.878;8.618;2023-03-14T21:25:25;6.30;99.90
39779;DHT22;25454;49.878;8.618;2023-03-14T21:30:26;6.30;99.90
39779;DHT22;25454;49.878;8.618;2023-03-14T21:35:27;6.20;99.90
39779;DHT22;25454;49.878;8.618;2023-03-14T21:40:27;6.10;99.90
39779;DHT22;25454;49.878;8.618;2023-03-14T21:45:28;6.10;99.90
39779;DHT22;25454;49.878;8.618;2023-03-14T21:50:28;6.10;99.90
39779;DHT22;25454;49.878;8.618;2023-03-14T21:55:29;6.20;99.90
39779;DHT22;25454;49.878;8.618;2023-03-14T22:00:29;6.20;99.90
39779;DHT22;25454;49.878;8.618;2023-03-14T22:05:30;6.10;99.90
39779;DHT22;25454;49.878;8.618;2023-03-14T22:10:31;6.10;99.90
39779;DHT22;25454;49.878;8.618;2023-03-14T22:15:31;6.10;99.90
39779;DHT22;25454;49.878;8.618;2023-03-14T22:20:35;6.10;99.90
39779;DHT22;25454;49.878;8.618;2023-03-14T22:25:41;6.20;99.90
39779;DHT22;25454;49.878;8.618;2023-03-14T22:30:46;6.20;99.90
39779;DHT22;25454;49.878;8.618;2023-03-14T22:35:48;6.30;99.90
39779;DHT22;25454;49.878;8.618;2023-03-14T22:40:49;6.30;99.90
39779;DHT22;25454;49.878;8.618;2023-03-14T22:45:58;6.40;99.90
39779;DHT22;25454;49.878;8.618;2023-03-14T22:51:04;6.40;99.90
39779;DHT22;25454;49.878;8.618;2023-03-14T22:56:07;6.40;99.90
39779;DHT22;25454;49.878;8.618;2023-03-14T23:01:12;6.40;99.90
39779;DHT22;25454;49.878;8.618;2023-03-14T23:06:13;6.40;99.90
39779;DHT22;25454;49.878;8.618;2023-03-14T23:11:14;6.40;99.90
39779;DHT22;25454;49.878;8.618;2023-03-14T23:16:14;6.30;99.90
39779;DHT22;25454;49.878;8.618;2023-03-14T23:21:18;6.30;99.90
39779;DHT22;25454;49.878;8.618;2023-03-14T23:26:21;6.20;99.90
39779;DHT22;25454;49.878;8.618;2023-03-14T23:31:22;6.10;99.90
39779;DHT22;25454;49.878;8.618;2023-03-14T23:36:25;6.00;99.90
39779;DHT22;25454;49.878;8.618;2023-03-14T23:41:25;5.90;99.90
39779;DHT22;25454;49.878;8.618;2023-03-14T23:46:26;5.80;99.90
39779;DHT22;25454;49.878;8.618;2023-03-14T23:51:27;5.70;99.90
39779;DHT22;25454;49.878;8.618;2023-03-14T23:56:28;5.60;99.90
